Time;durP1;ratioP1;P1;durP2;ratioP2;P2;SDS_P1;SDS_P2;PMS_P1;PMS_P2;Temp;Humidity;BMP_temperature;BMP_pressure;BME280_temperature;BME280_humidity;BME280_pressure;Samples;Min_cycle;Max_cycle;Signal;HPM_P1;HPM_P2
2022/06/13 00:01:39;;;;;;;;;;;23.00;87.80;;;;;;5084371;28;19924;-80
2022/06/13 00:04:07;;;;;;;;;;;23.00;88.00;;;;;;5076913;28;20352;-78
2022/06/13 00:06:36;;;;;;;;;;;23.00;88.50;;;;;;5080561;28;19967;-79
2022/06/13 00:09:03;;;;;;;;;;;23.00;89.30;;;;;;5066833;28;20608;-79
2022/06/13 00:11:30;;;;;;;;;;;23.00;89.90;;;;;;5076343;28;20002;-78
2022/06/13 00:13:57;;;;;;;;;;;22.90;90.10;;;;;;5074323;28;19928;-80
2022/06/13 00:16:25;;;;;;;;;;;22.90;90.30;;;;;;5080459;28;19932;-79
2022/06/13 00:18:52;;;;;;;;;;;22.80;90.40;;;;;;5077301;28;19925;-79
2022/06/13 00:21:19;;;;;;;;;;;22.60;90.50;;;;;;5080165;28;20011;-79
2022/06/13 00:23:49;;;;;;;;;;;22.60;90.50;;;;;;5059583;28;20397;-81
2022/06/13 00:26:16;;;;;;;;;;;22.60;90.40;;;;;;5076299;28;21181;-82
2022/06/13 00:28:43;;;;;;;;;;;22.50;90.30;;;;;;5062717;28;19929;-82
2022/06/13 00:31:10;;;;;;;;;;;22.50;90.30;;;;;;5077023;28;19934;-78
2022/06/13 00:33:37;;;;;;;;;;;22.50;90.40;;;;;;5082213;28;19924;-79
2022/06/13 00:36:04;;;;;;;;;;;22.50;90.40;;;;;;5077941;28;19928;-78
2022/06/13 00:38:31;;;;;;;;;;;22.40;90.40;;;;;;5083502;28;19924;-78
2022/06/13 00:40:59;;;;;;;;;;;22.40;90.40;;;;;;5080826;28;20370;-78
2022/06/13 00:43:26;;;;;;;;;;;22.40;90.30;;;;;;5083159;28;20410;-78
2022/06/13 00:45:53;;;;;;;;;;;22.40;90.40;;;;;;5079433;28;19934;-79
2022/06/13 00:48:23;;;;;;;;;;;22.30;90.30;;;;;;5079401;28;19935;-79
2022/06/13 00:50:53;;;;;;;;;;;22.30;90.30;;;;;;5077590;28;19962;-79
2022/06/13 00:53:22;;;;;;;;;;;22.30;90.40;;;;;;5075056;28;19932;-81
2022/06/13 00:55:50;;;;;;;;;;;22.20;90.40;;;;;;5082615;28;19943;-80
2022/06/13 00:58:19;;;;;;;;;;;22.20;90.40;;;;;;5077875;28;19932;-79
2022/06/13 01:00:48;;;;;;;;;;;22.20;90.50;;;;;;5078924;28;19934;-78
2022/06/13 01:03:15;;;;;;;;;;;22.10;90.50;;;;;;5083427;28;19954;-78
2022/06/13 01:05:44;;;;;;;;;;;22.10;90.50;;;;;;5060690;28;19928;-78
2022/06/13 01:08:12;;;;;;;;;;;22.10;90.60;;;;;;5080929;28;19924;-80
2022/06/13 01:13:31;;;;;;;;;;;22.00;90.70;;;;;;5077659;28;19924;-79
2022/06/13 01:16:10;;;;;;;;;;;22.00;90.80;;;;;;5061950;28;20387;-79
2022/06/13 01:18:44;;;;;;;;;;;21.90;90.90;;;;;;5081230;28;20208;-78
2022/06/13 01:21:13;;;;;;;;;;;21.90;90.90;;;;;;5078551;28;19932;-78
2022/06/13 01:24:11;;;;;;;;;;;21.80;90.90;;;;;;5058596;28;19924;-79
2022/06/13 01:26:47;;;;;;;;;;;21.80;90.90;;;;;;5077710;28;19967;-78
2022/06/13 01:29:26;;;;;;;;;;;21.80;90.90;;;;;;5078428;28;19924;-79
2022/06/13 01:31:57;;;;;;;;;;;21.80;90.90;;;;;;5076926;28;19924;-78
2022/06/13 01:34:30;;;;;;;;;;;21.70;90.90;;;;;;5056046;28;19928;-78
2022/06/13 01:37:05;;;;;;;;;;;21.70;90.80;;;;;;5074907;28;19924;-78
2022/06/13 01:39:36;;;;;;;;;;;21.70;90.80;;;;;;5080622;28;19924;-79
2022/06/13 01:42:06;;;;;;;;;;;21.60;90.90;;;;;;5073262;28;20417;-80
2022/06/13 01:44:36;;;;;;;;;;;21.60;90.90;;;;;;5077254;28;19931;-79
2022/06/13 01:47:08;;;;;;;;;;;21.60;91.00;;;;;;5077718;28;20011;-78
2022/06/13 01:49:40;;;;;;;;;;;21.50;91.00;;;;;;5076493;28;20347;-78
2022/06/13 01:52:08;;;;;;;;;;;21.50;91.00;;;;;;5063936;28;19931;-80
2022/06/13 01:54:40;;;;;;;;;;;21.50;91.10;;;;;;5085174;28;20427;-79
2022/06/13 01:57:17;;;;;;;;;;;21.50;91.10;;;;;;5105709;22;19932;-81
2022/06/13 01:59:50;;;;;;;;;;;21.50;91.10;;;;;;5105629;27;19927;-84
2022/06/13 02:02:20;;;;;;;;;;;21.40;91.00;;;;;;5106627;27;19923;-83
2022/06/13 02:04:47;;;;;;;;;;;;;;;;;;5124225;27;19924;-84
2022/06/13 02:07:16;;;;;;;;;;;21.40;90.80;;;;;;5116222;27;19923;-83
2022/06/13 02:09:45;;;;;;;;;;;21.30;91.00;;;;;;5124512;27;19931;-84
2022/06/13 02:12:13;;;;;;;;;;;21.30;91.00;;;;;;5122985;27;19927;-83
2022/06/13 02:14:42;;;;;;;;;;;21.30;91.00;;;;;;5121015;27;19927;-83
2022/06/13 02:17:11;;;;;;;;;;;21.30;91.10;;;;;;5107448;28;19923;-84
2022/06/13 02:19:42;;;;;;;;;;;21.30;91.10;;;;;;5106792;27;19923;-84
2022/06/13 02:22:11;;;;;;;;;;;21.20;91.10;;;;;;5121846;27;19934;-83
2022/06/13 02:24:39;;;;;;;;;;;21.20;91.40;;;;;;5125357;27;19942;-84
2022/06/13 02:27:08;;;;;;;;;;;21.20;91.10;;;;;;5127577;27;19968;-84
2022/06/13 02:29:39;;;;;;;;;;;21.20;91.10;;;;;;5119766;27;20377;-84
2022/06/13 02:32:08;;;;;;;;;;;21.10;91.00;;;;;;5124527;27;19923;-84
2022/06/13 02:34:37;;;;;;;;;;;21.10;91.10;;;;;;5126343;27;19930;-84
2022/06/13 02:37:09;;;;;;;;;;;21.10;91.10;;;;;;5121184;27;19938;-84
2022/06/13 02:39:40;;;;;;;;;;;21.00;91.10;;;;;;5120272;27;19927;-84
2022/06/13 02:42:11;;;;;;;;;;;21.00;91.00;;;;;;5126863;27;20309;-83
2022/06/13 02:44:39;;;;;;;;;;;21.00;91.10;;;;;;5123756;27;19943;-83
2022/06/13 02:47:10;;;;;;;;;;;21.00;91.20;;;;;;5106063;27;19991;-84
2022/06/13 02:49:39;;;;;;;;;;;21.00;91.20;;;;;;5118045;27;20330;-84
2022/06/13 02:52:14;;;;;;;;;;;20.90;91.20;;;;;;5119069;27;19938;-83
2022/06/13 02:54:45;;;;;;;;;;;20.90;91.50;;;;;;5124568;27;19939;-83
2022/06/13 02:57:27;;;;;;;;;;;20.90;91.20;;;;;;5125222;27;19992;-84
2022/06/13 03:00:02;;;;;;;;;;;20.90;91.20;;;;;;5122785;27;19938;-83
2022/06/13 03:02:35;;;;;;;;;;;20.80;91.20;;;;;;5104790;28;19989;-84
2022/06/13 03:05:06;;;;;;;;;;;20.80;91.20;;;;;;5126437;27;19938;-84
2022/06/13 03:07:36;;;;;;;;;;;20.80;91.20;;;;;;5133196;28;19923;-84
2022/06/13 03:10:05;;;;;;;;;;;20.80;91.20;;;;;;5106420;28;19938;-84
2022/06/13 03:12:34;;;;;;;;;;;20.80;91.30;;;;;;5121561;28;19935;-84
2022/06/13 03:15:03;;;;;;;;;;;20.70;91.30;;;;;;5124429;28;19931;-83
2022/06/13 03:17:36;;;;;;;;;;;20.70;91.40;;;;;;5106717;28;20161;-84
2022/06/13 03:20:08;;;;;;;;;;;20.70;91.50;;;;;;5125504;28;21798;-84
2022/06/13 03:22:40;;;;;;;;;;;20.70;91.70;;;;;;5105375;28;19934;-84
2022/06/13 03:25:10;;;;;;;;;;;20.70;91.80;;;;;;5121681;28;19931;-83
2022/06/13 03:27:38;;;;;;;;;;;20.60;91.80;;;;;;5127430;28;19946;-84
2022/06/13 03:30:08;;;;;;;;;;;20.60;91.90;;;;;;5124878;28;20351;-84
2022/06/13 03:32:37;;;;;;;;;;;20.60;92.00;;;;;;5103386;28;19931;-84
2022/06/13 03:35:06;;;;;;;;;;;20.60;92.10;;;;;;5121459;27;20014;-84
2022/06/13 03:37:35;;;;;;;;;;;20.50;92.10;;;;;;5110612;28;19934;-84
2022/06/13 03:40:06;;;;;;;;;;;20.50;92.20;;;;;;5122769;28;19934;-83
2022/06/13 03:42:37;;;;;;;;;;;20.50;92.20;;;;;;5117015;28;20037;-83
2022/06/13 03:45:05;;;;;;;;;;;20.50;92.30;;;;;;5123596;28;19934;-84
2022/06/13 03:47:34;;;;;;;;;;;20.40;92.30;;;;;;5124567;28;20358;-84
2022/06/13 03:50:07;;;;;;;;;;;20.40;92.30;;;;;;5120035;28;20022;-83
2022/06/13 03:52:35;;;;;;;;;;;20.40;92.30;;;;;;5116523;28;19927;-84
2022/06/13 03:55:06;;;;;;;;;;;20.40;92.30;;;;;;5127090;28;19931;-83
2022/06/13 03:57:36;;;;;;;;;;;20.40;92.30;;;;;;5112336;28;20485;-85
2022/06/13 04:00:08;;;;;;;;;;;20.30;92.30;;;;;;5102602;28;20354;-84
2022/06/13 04:02:37;;;;;;;;;;;20.30;92.40;;;;;;5102585;28;19928;-84
2022/06/13 04:05:04;;;;;;;;;;;20.30;92.50;;;;;;5124966;27;19938;-84
2022/06/13 04:07:33;;;;;;;;;;;20.30;92.50;;;;;;5103100;27;20494;-83
2022/06/13 04:10:01;;;;;;;;;;;20.20;92.50;;;;;;5119225;27;19939;-83
2022/06/13 04:12:41;;;;;;;;;;;20.20;92.60;;;;;;5114319;27;19924;-83
2022/06/13 04:15:17;;;;;;;;;;;20.20;92.60;;;;;;5106079;27;19927;-84
2022/06/13 04:17:46;;;;;;;;;;;20.20;92.70;;;;;;5127348;27;19927;-83
2022/06/13 04:20:19;;;;;;;;;;;20.20;92.70;;;;;;5123464;27;20354;-82
2022/06/13 04:22:49;;;;;;;;;;;20.10;92.60;;;;;;5125145;27;19937;-81
2022/06/13 04:25:20;;;;;;;;;;;20.10;92.70;;;;;;5125645;27;19931;-83
2022/06/13 04:27:51;;;;;;;;;;;20.10;92.70;;;;;;5129145;27;20397;-82
2022/06/13 04:30:20;;;;;;;;;;;20.10;92.70;;;;;;5124413;27;19923;-88
2022/06/13 04:32:49;;;;;;;;;;;20.10;92.80;;;;;;5121015;27;19941;-85
2022/06/13 04:35:17;;;;;;;;;;;20.00;92.70;;;;;;5107634;27;19942;-82
2022/06/13 04:37:44;;;;;;;;;;;20.00;92.80;;;;;;5131401;27;19929;-84
2022/06/13 04:40:13;;;;;;;;;;;20.00;92.70;;;;;;5120944;27;19948;-86
2022/06/13 04:42:42;;;;;;;;;;;20.00;92.80;;;;;;5104793;27;20805;-83
2022/06/13 04:45:15;;;;;;;;;;;19.90;92.70;;;;;;5099320;27;19949;-83
2022/06/13 04:47:43;;;;;;;;;;;19.90;93.00;;;;;;5115873;27;19932;-83
2022/06/13 04:50:14;;;;;;;;;;;19.90;92.70;;;;;;5102232;27;20317;-83
2022/06/13 04:52:41;;;;;;;;;;;19.90;92.60;;;;;;5098647;27;20126;-83
2022/06/13 04:55:14;;;;;;;;;;;19.90;92.70;;;;;;5102053;27;19996;-84
2022/06/13 04:57:41;;;;;;;;;;;19.90;92.70;;;;;;5111186;27;19941;-83
2022/06/13 05:00:09;;;;;;;;;;;19.80;92.50;;;;;;5117410;27;19967;-83
2022/06/13 05:02:39;;;;;;;;;;;19.80;92.50;;;;;;5127676;27;20001;-83
2022/06/13 05:05:09;;;;;;;;;;;19.80;92.50;;;;;;5128324;27;19931;-85
2022/06/13 05:07:36;;;;;;;;;;;19.80;92.50;;;;;;5115827;27;20308;-84
2022/06/13 05:10:06;;;;;;;;;;;19.70;92.50;;;;;;5133553;27;19942;-85
2022/06/13 05:12:36;;;;;;;;;;;19.80;92.60;;;;;;5133584;27;20623;-83
2022/06/13 05:15:06;;;;;;;;;;;19.80;92.60;;;;;;5112819;27;19959;-83
2022/06/13 05:17:48;;;;;;;;;;;19.80;92.60;;;;;;5130921;27;19924;-84
2022/06/13 05:20:18;;;;;;;;;;;19.70;92.50;;;;;;5126486;27;20146;-83
2022/06/13 05:22:53;;;;;;;;;;;19.70;92.60;;;;;;5121379;27;19923;-84
2022/06/13 05:25:30;;;;;;;;;;;19.70;92.70;;;;;;5129955;27;19932;-84
2022/06/13 05:27:57;;;;;;;;;;;19.70;92.80;;;;;;5123700;27;19928;-83
2022/06/13 05:30:24;;;;;;;;;;;19.70;92.90;;;;;;5137302;27;19928;-83
2022/06/13 05:32:52;;;;;;;;;;;19.60;92.80;;;;;;5128296;27;19924;-83
2022/06/13 05:35:20;;;;;;;;;;;19.60;92.80;;;;;;5133129;27;19930;-83
2022/06/13 05:37:47;;;;;;;;;;;19.60;92.90;;;;;;5115299;27;19984;-84
2022/06/13 05:40:15;;;;;;;;;;;19.60;92.90;;;;;;5132362;27;19930;-84
2022/06/13 05:42:42;;;;;;;;;;;19.60;92.90;;;;;;5133120;27;20545;-84
2022/06/13 05:45:11;;;;;;;;;;;19.60;92.90;;;;;;5115254;27;19934;-83
2022/06/13 05:47:38;;;;;;;;;;;19.60;92.90;;;;;;5133533;27;19932;-83
2022/06/13 05:50:07;;;;;;;;;;;19.60;93.10;;;;;;5128624;27;20974;-83
2022/06/13 05:52:34;;;;;;;;;;;19.50;93.20;;;;;;5127846;27;19949;-83
2022/06/13 05:55:01;;;;;;;;;;;19.50;93.30;;;;;;5132158;27;19947;-83
2022/06/13 05:57:29;;;;;;;;;;;19.50;93.40;;;;;;5133370;27;19927;-83
2022/06/13 05:59:56;;;;;;;;;;;19.50;93.50;;;;;;5116436;27;19932;-83
2022/06/13 06:02:22;;;;;;;;;;;19.50;93.50;;;;;;5126523;27;20293;-83
2022/06/13 06:04:49;;;;;;;;;;;19.50;93.50;;;;;;5132998;27;19924;-84
2022/06/13 06:07:18;;;;;;;;;;;19.50;93.50;;;;;;5112591;27;20514;-83
2022/06/13 06:09:45;;;;;;;;;;;19.50;93.60;;;;;;5134356;27;19930;-84
2022/06/13 06:12:12;;;;;;;;;;;19.50;93.70;;;;;;5108276;27;19927;-83
2022/06/13 06:14:38;;;;;;;;;;;19.40;93.60;;;;;;5115386;27;20015;-83
2022/06/13 06:17:08;;;;;;;;;;;19.50;93.70;;;;;;5111006;27;19937;-83
2022/06/13 06:19:35;;;;;;;;;;;19.40;93.60;;;;;;5130448;27;19928;-84
2022/06/13 06:22:02;;;;;;;;;;;19.40;93.60;;;;;;5130238;27;19932;-83
2022/06/13 06:24:31;;;;;;;;;;;19.40;93.70;;;;;;5115317;27;20705;-83
2022/06/13 06:26:57;;;;;;;;;;;19.40;93.80;;;;;;5113061;27;19990;-84
2022/06/13 06:29:25;;;;;;;;;;;19.40;93.70;;;;;;5129477;27;19946;-83
2022/06/13 06:31:52;;;;;;;;;;;19.40;93.60;;;;;;5130127;27;19949;-83
2022/06/13 06:34:19;;;;;;;;;;;19.30;93.50;;;;;;5128210;27;19923;-83
2022/06/13 06:36:46;;;;;;;;;;;19.30;93.50;;;;;;5127821;27;19931;-83
2022/06/13 06:39:13;;;;;;;;;;;19.30;93.50;;;;;;5131265;27;19931;-83
2022/06/13 06:41:42;;;;;;;;;;;19.30;93.50;;;;;;5132763;27;19938;-84
2022/06/13 06:44:09;;;;;;;;;;;19.30;93.50;;;;;;5107287;27;21890;-83
2022/06/13 06:46:36;;;;;;;;;;;19.20;93.40;;;;;;5132949;27;19976;-83
2022/06/13 06:49:03;;;;;;;;;;;19.20;93.30;;;;;;5126298;27;19931;-80
2022/06/13 06:51:30;;;;;;;;;;;19.20;93.10;;;;;;5110253;27;20027;-83
2022/06/13 06:59:56;;;;;;;;;;;19.10;92.80;;;;;;5088318;27;19924;-84
2022/06/13 07:02:24;;;;;;;;;;;19.10;92.50;;;;;;5126226;27;19973;-84
2022/06/13 07:04:51;;;;;;;;;;;19.10;92.40;;;;;;5131826;28;19923;-84
2022/06/13 07:07:18;;;;;;;;;;;19.10;92.30;;;;;;5132255;28;19938;-84
2022/06/13 07:09:45;;;;;;;;;;;19.00;92.20;;;;;;5128648;28;20725;-84
2022/06/13 07:12:14;;;;;;;;;;;19.00;92.20;;;;;;5111453;28;19970;-84
2022/06/13 07:14:40;;;;;;;;;;;19.00;92.10;;;;;;5134391;28;20377;-84
2022/06/13 07:19:44;;;;;;;;;;;19.00;92.10;;;;;;5075812;28;19939;-81
2022/06/13 07:22:12;;;;;;;;;;;19.00;92.10;;;;;;5078268;28;20305;-81
2022/06/13 07:24:39;;;;;;;;;;;19.00;92.20;;;;;;5067963;28;20002;-80
2022/06/13 07:27:06;;;;;;;;;;;18.90;92.00;;;;;;5077776;28;20015;-80
2022/06/13 07:29:34;;;;;;;;;;;18.90;92.00;;;;;;5087287;28;19995;-86
2022/06/13 07:32:05;;;;;;;;;;;18.90;92.10;;;;;;5082780;28;19935;-85
2022/06/13 07:34:33;;;;;;;;;;;18.90;92.10;;;;;;5085726;28;19931;-80
2022/06/13 07:37:01;;;;;;;;;;;18.90;92.00;;;;;;5063530;28;19965;-81
2022/06/13 07:39:27;;;;;;;;;;;18.90;91.90;;;;;;5084906;28;20360;-80
2022/06/13 07:41:54;;;;;;;;;;;18.90;91.90;;;;;;5067318;28;19931;-81
2022/06/13 07:44:23;;;;;;;;;;;18.80;92.00;;;;;;5082890;28;19928;-81
2022/06/13 07:46:52;;;;;;;;;;;18.80;91.90;;;;;;5084298;28;20011;-80
2022/06/13 07:49:19;;;;;;;;;;;18.80;91.90;;;;;;5066934;28;19924;-80
2022/06/13 07:51:46;;;;;;;;;;;18.80;91.90;;;;;;5087982;28;19943;-81
2022/06/13 07:54:13;;;;;;;;;;;18.80;91.90;;;;;;5082150;28;19936;-81
2022/06/13 07:56:40;;;;;;;;;;;18.80;91.90;;;;;;5070069;28;19989;-80
2022/06/13 07:59:08;;;;;;;;;;;18.80;91.80;;;;;;5066369;28;19935;-79
2022/06/13 08:01:36;;;;;;;;;;;18.70;91.80;;;;;;5080761;28;19982;-79
2022/06/13 08:04:05;;;;;;;;;;;18.80;91.90;;;;;;5066634;28;20260;-80
2022/06/13 08:06:32;;;;;;;;;;;18.70;91.80;;;;;;5087672;28;19928;-79
2022/06/13 08:08:59;;;;;;;;;;;18.70;91.80;;;;;;5069641;28;19931;-79
2022/06/13 08:11:29;;;;;;;;;;;18.70;91.80;;;;;;5080323;28;19924;-79
2022/06/13 08:13:56;;;;;;;;;;;18.70;91.70;;;;;;5070524;28;19924;-80
2022/06/13 08:16:23;;;;;;;;;;;18.70;91.60;;;;;;5090124;28;19978;-79
2022/06/13 08:18:50;;;;;;;;;;;18.70;91.70;;;;;;5073921;28;19932;-79
2022/06/13 08:21:18;;;;;;;;;;;18.70;91.60;;;;;;5094508;28;20573;-80
2022/06/13 08:23:45;;;;;;;;;;;18.60;91.60;;;;;;5086872;28;19928;-79
2022/06/13 08:26:12;;;;;;;;;;;18.60;91.60;;;;;;5093144;28;19924;-80
2022/06/13 08:28:39;;;;;;;;;;;18.60;91.50;;;;;;5077348;28;20385;-79
2022/06/13 08:31:07;;;;;;;;;;;18.60;91.50;;;;;;5090230;28;19924;-79
2022/06/13 08:33:34;;;;;;;;;;;18.60;91.50;;;;;;5084543;28;19931;-78
2022/06/13 08:36:01;;;;;;;;;;;18.60;91.50;;;;;;5086274;28;19932;-78
2022/06/13 08:38:30;;;;;;;;;;;18.60;91.50;;;;;;5063141;28;20044;-78
2022/06/13 08:41:00;;;;;;;;;;;18.60;91.50;;;;;;5082998;28;20460;-79
2022/06/13 08:43:37;;;;;;;;;;;18.60;91.40;;;;;;5085600;28;19967;-78
2022/06/13 08:46:09;;;;;;;;;;;18.50;91.30;;;;;;5077585;28;19938;-78
2022/06/13 08:48:39;;;;;;;;;;;18.60;91.40;;;;;;5065917;28;19927;-78
2022/06/13 08:51:08;;;;;;;;;;;18.60;91.40;;;;;;5065261;28;19924;-78
2022/06/13 08:53:40;;;;;;;;;;;18.50;91.30;;;;;;5082149;28;20023;-78
2022/06/13 08:56:10;;;;;;;;;;;18.50;91.30;;;;;;5082009;28;19924;-78
2022/06/13 08:58:39;;;;;;;;;;;18.50;91.40;;;;;;5083827;28;19931;-79
2022/06/13 09:01:08;;;;;;;;;;;18.50;91.30;;;;;;5083656;28;20013;-81
2022/06/13 09:03:37;;;;;;;;;;;18.50;91.20;;;;;;5085621;28;19924;-79
2022/06/13 09:06:08;;;;;;;;;;;18.50;91.10;;;;;;5082534;28;19928;-79
2022/06/13 09:08:40;;;;;;;;;;;18.50;91.00;;;;;;5084772;28;19930;-79
2022/06/13 09:11:11;;;;;;;;;;;18.40;91.00;;;;;;5067302;28;20425;-80
2022/06/13 09:13:42;;;;;;;;;;;18.40;90.90;;;;;;5083078;28;20302;-79
2022/06/13 09:16:11;;;;;;;;;;;18.50;90.90;;;;;;5069262;28;20435;-79
2022/06/13 09:18:45;;;;;;;;;;;18.40;90.90;;;;;;5086808;28;20015;-80
2022/06/13 09:21:16;;;;;;;;;;;18.40;90.90;;;;;;5084529;28;20007;-79
2022/06/13 09:23:48;;;;;;;;;;;18.50;91.00;;;;;;5086161;28;20373;-79
2022/06/13 09:26:17;;;;;;;;;;;18.50;91.00;;;;;;5079566;28;19928;-79
2022/06/13 09:28:48;;;;;;;;;;;18.40;90.90;;;;;;5088614;28;19969;-79
2022/06/13 09:31:18;;;;;;;;;;;18.50;90.90;;;;;;5080210;28;19932;-79
2022/06/13 09:33:48;;;;;;;;;;;18.40;90.90;;;;;;5067360;28;20348;-79
2022/06/13 09:36:18;;;;;;;;;;;18.40;90.90;;;;;;5082875;28;19982;-80
2022/06/13 09:38:52;;;;;;;;;;;18.40;91.00;;;;;;5078936;28;19932;-79
2022/06/13 09:41:34;;;;;;;;;;;18.50;91.00;;;;;;5075686;28;20431;-79
2022/06/13 09:44:08;;;;;;;;;;;18.50;91.10;;;;;;5079446;28;19935;-79
2022/06/13 09:46:41;;;;;;;;;;;18.50;91.20;;;;;;5082774;28;19938;-79
2022/06/13 09:49:11;;;;;;;;;;;18.40;90.70;;;;;;5079706;28;19932;-79
2022/06/13 09:51:44;;;;;;;;;;;18.50;90.80;;;;;;5085555;28;19992;-78
2022/06/13 09:54:15;;;;;;;;;;;18.50;90.80;;;;;;5083011;28;21106;-80
2022/06/13 09:56:49;;;;;;;;;;;18.50;90.70;;;;;;5082046;28;19924;-79
2022/06/13 09:59:28;;;;;;;;;;;18.50;90.70;;;;;;5080313;28;19931;-79
2022/06/13 10:02:00;;;;;;;;;;;18.50;90.70;;;;;;5063777;28;19924;-80
2022/06/13 10:04:32;;;;;;;;;;;18.50;90.60;;;;;;5078140;28;19934;-79
2022/06/13 10:07:05;;;;;;;;;;;18.50;90.60;;;;;;5079790;28;19968;-79
2022/06/13 10:09:40;;;;;;;;;;;18.50;90.60;;;;;;5084860;28;19924;-78
2022/06/13 10:12:11;;;;;;;;;;;18.50;90.50;;;;;;5060354;28;19934;-80
2022/06/13 10:14:48;;;;;;;;;;;18.50;90.50;;;;;;5082965;28;20332;-79
2022/06/13 10:17:26;;;;;;;;;;;18.50;90.50;;;;;;5084382;28;20267;-78
2022/06/13 10:19:59;;;;;;;;;;;18.50;90.30;;;;;;5086638;28;19931;-80
2022/06/13 10:22:30;;;;;;;;;;;18.50;90.20;;;;;;5077017;28;19928;-76
2022/06/13 10:25:06;;;;;;;;;;;18.50;90.10;;;;;;5080813;28;19924;-76
2022/06/13 10:27:39;;;;;;;;;;;18.50;90.20;;;;;;5066867;28;19931;-76
2022/06/13 10:30:19;;;;;;;;;;;18.50;89.70;;;;;;5076417;28;19928;-76
2022/06/13 10:32:56;;;;;;;;;;;18.40;88.60;;;;;;5077043;28;20359;-76
2022/06/13 10:35:28;;;;;;;;;;;18.50;88.60;;;;;;5081668;28;20015;-76
2022/06/13 10:38:02;;;;;;;;;;;18.50;88.30;;;;;;5059496;28;19932;-77
2022/06/13 10:40:31;;;;;;;;;;;18.50;88.60;;;;;;5081621;28;19924;-78
2022/06/13 10:43:01;;;;;;;;;;;18.50;88.70;;;;;;5062303;28;20314;-77
2022/06/13 10:45:29;;;;;;;;;;;18.50;88.70;;;;;;5059560;28;19928;-77
2022/06/13 10:47:59;;;;;;;;;;;18.50;88.80;;;;;;5078939;28;20348;-77
2022/06/13 10:50:29;;;;;;;;;;;18.50;88.80;;;;;;5057403;28;20059;-77
2022/06/13 10:53:00;;;;;;;;;;;18.50;88.30;;;;;;5080289;28;19928;-77
2022/06/13 10:55:27;;;;;;;;;;;18.50;88.10;;;;;;5077580;28;19935;-77
2022/06/13 10:58:07;;;;;;;;;;;18.50;88.10;;;;;;5080704;28;20246;-77
2022/06/13 11:00:36;;;;;;;;;;;18.50;87.80;;;;;;5077156;28;19985;-78
2022/06/13 11:03:13;;;;;;;;;;;18.50;87.30;;;;;;5059240;28;21363;-77
2022/06/13 11:05:52;;;;;;;;;;;18.50;87.20;;;;;;5058520;28;19939;-77
2022/06/13 11:08:19;;;;;;;;;;;18.50;86.70;;;;;;5071152;28;19932;-77
2022/06/13 11:10:52;;;;;;;;;;;18.50;86.70;;;;;;5081756;28;19928;-77
2022/06/13 11:13:26;;;;;;;;;;;18.50;87.10;;;;;;5086956;28;20392;-77
2022/06/13 11:24:13;;;;;;;;;;;18.50;86.60;;;;;;5066206;28;19928;-77
2022/06/13 11:29:28;;;;;;;;;;;18.60;86.90;;;;;;5069163;28;20298;-76
2022/06/13 11:31:56;;;;;;;;;;;18.60;86.20;;;;;;5087460;28;19930;-76
2022/06/13 11:34:26;;;;;;;;;;;18.60;86.40;;;;;;5083750;28;19977;-76
2022/06/13 11:36:57;;;;;;;;;;;18.60;86.60;;;;;;5082205;28;19929;-76
2022/06/13 11:39:31;;;;;;;;;;;18.70;86.40;;;;;;5070386;28;20330;-76
2022/06/13 11:41:57;;;;;;;;;;;18.60;86.10;;;;;;5080585;28;20336;-76
2022/06/13 11:44:25;;;;;;;;;;;18.70;86.70;;;;;;5062577;28;19928;-76
2022/06/13 11:46:58;;;;;;;;;;;18.70;86.20;;;;;;5084550;28;19924;-76
2022/06/13 11:49:32;;;;;;;;;;;18.70;86.30;;;;;;5081171;28;19924;-77
2022/06/13 11:52:01;;;;;;;;;;;18.70;85.90;;;;;;5082312;28;19932;-76
2022/06/13 11:54:30;;;;;;;;;;;18.70;86.90;;;;;;5083198;28;19932;-76
2022/06/13 11:57:16;;;;;;;;;;;18.80;87.00;;;;;;5063226;28;20295;-76
2022/06/13 11:59:47;;;;;;;;;;;18.80;86.90;;;;;;5059216;28;20356;-76
2022/06/13 12:02:18;;;;;;;;;;;18.80;86.10;;;;;;5085130;28;20034;-76
2022/06/13 12:04:46;;;;;;;;;;;18.80;86.30;;;;;;5067395;28;19932;-76
2022/06/13 12:07:22;;;;;;;;;;;18.90;86.50;;;;;;5080806;28;20363;-76
2022/06/13 12:09:52;;;;;;;;;;;19.00;85.80;;;;;;5061778;28;19928;-76
2022/06/13 12:12:19;;;;;;;;;;;19.00;85.70;;;;;;5060953;28;20020;-76
2022/06/13 12:14:46;;;;;;;;;;;19.00;85.60;;;;;;5082172;28;19924;-76
2022/06/13 12:17:17;;;;;;;;;;;19.10;83.80;;;;;;5083845;28;20098;-76
2022/06/13 12:19:48;;;;;;;;;;;19.10;85.20;;;;;;5065120;28;21654;-75
2022/06/13 12:22:18;;;;;;;;;;;19.20;85.40;;;;;;5082344;28;19931;-76
2022/06/13 12:24:50;;;;;;;;;;;19.20;85.10;;;;;;5059673;28;19924;-76
2022/06/13 12:27:27;;;;;;;;;;;19.20;84.80;;;;;;5080737;28;19924;-76
2022/06/13 12:30:04;;;;;;;;;;;19.20;84.50;;;;;;5082249;28;19929;-76
2022/06/13 12:32:33;;;;;;;;;;;19.30;84.80;;;;;;5086255;28;19950;-76
2022/06/13 12:35:09;;;;;;;;;;;19.30;85.00;;;;;;5081727;28;19974;-76
2022/06/13 12:37:42;;;;;;;;;;;19.40;84.90;;;;;;5087891;28;19924;-77
2022/06/13 12:40:16;;;;;;;;;;;19.40;84.10;;;;;;5087643;28;19928;-77
2022/06/13 12:42:58;;;;;;;;;;;19.40;83.60;;;;;;5056161;28;20272;-76
2022/06/13 12:45:40;;;;;;;;;;;19.50;83.70;;;;;;5062795;28;20481;-77
2022/06/13 12:48:17;;;;;;;;;;;19.50;83.20;;;;;;5084176;28;19974;-77
2022/06/13 12:50:59;;;;;;;;;;;19.50;82.80;;;;;;5078652;28;19924;-77
2022/06/13 12:53:40;;;;;;;;;;;19.60;83.30;;;;;;5062249;28;19928;-77
2022/06/13 12:56:09;;;;;;;;;;;19.60;82.20;;;;;;5063044;28;20357;-77
2022/06/13 12:58:40;;;;;;;;;;;19.60;82.10;;;;;;5083674;28;20361;-77
2022/06/13 13:01:11;;;;;;;;;;;19.60;83.10;;;;;;5065422;28;19956;-77
2022/06/13 13:03:56;;;;;;;;;;;19.70;82.80;;;;;;5084150;28;19938;-76
2022/06/13 13:06:29;;;;;;;;;;;19.70;82.50;;;;;;5081496;28;20309;-77
2022/06/13 13:09:00;;;;;;;;;;;19.70;83.40;;;;;;5078565;28;19924;-77
2022/06/13 13:11:34;;;;;;;;;;;19.80;83.40;;;;;;5080017;28;20390;-77
2022/06/13 13:14:05;;;;;;;;;;;19.80;82.90;;;;;;5063512;28;20278;-77
2022/06/13 13:16:36;;;;;;;;;;;19.90;82.40;;;;;;5078875;28;19924;-77
2022/06/13 13:19:18;;;;;;;;;;;19.90;82.50;;;;;;5087221;28;20398;-77
2022/06/13 13:21:50;;;;;;;;;;;19.90;82.80;;;;;;5083570;28;19932;-77
2022/06/13 13:24:26;;;;;;;;;;;19.90;82.00;;;;;;5086263;28;19932;-77
2022/06/13 13:26:56;;;;;;;;;;;20.00;82.30;;;;;;5060491;28;19928;-77
2022/06/13 13:29:27;;;;;;;;;;;20.00;82.10;;;;;;5058903;28;19985;-78
2022/06/13 13:31:59;;;;;;;;;;;20.00;81.90;;;;;;5078615;28;19956;-77
2022/06/13 13:34:36;;;;;;;;;;;20.00;82.30;;;;;;5072703;28;19981;-77
2022/06/13 13:37:11;;;;;;;;;;;20.10;81.60;;;;;;5079768;28;19982;-77
2022/06/13 13:39:39;;;;;;;;;;;20.10;81.60;;;;;;5083695;28;19939;-77
2022/06/13 13:42:12;;;;;;;;;;;20.10;82.50;;;;;;5076608;28;20194;-77
2022/06/13 13:44:43;;;;;;;;;;;20.20;81.60;;;;;;5081505;28;19932;-77
2022/06/13 13:47:12;;;;;;;;;;;20.20;81.90;;;;;;5083314;28;20450;-78
2022/06/13 13:49:43;;;;;;;;;;;20.20;82.20;;;;;;5084324;28;19932;-79
2022/06/13 13:52:16;;;;;;;;;;;20.30;82.10;;;;;;5057092;28;19928;-79
2022/06/13 13:54:48;;;;;;;;;;;20.30;80.10;;;;;;5062993;28;19935;-78
2022/06/13 13:57:17;;;;;;;;;;;20.40;80.00;;;;;;5080894;28;20394;-77
2022/06/13 13:59:45;;;;;;;;;;;20.40;80.00;;;;;;5085538;28;19993;-78
2022/06/13 14:02:16;;;;;;;;;;;20.40;80.40;;;;;;5084518;28;19924;-77
2022/06/13 14:04:49;;;;;;;;;;;20.40;80.80;;;;;;5083895;28;19931;-77
2022/06/13 14:07:31;;;;;;;;;;;20.50;81.20;;;;;;5086085;28;20370;-76
2022/06/13 14:09:59;;;;;;;;;;;20.50;79.30;;;;;;5082691;28;19931;-76
2022/06/13 14:12:26;;;;;;;;;;;20.60;79.50;;;;;;5081953;28;19928;-77
2022/06/13 14:15:07;;;;;;;;;;;20.60;79.50;;;;;;5086174;28;20011;-77
2022/06/13 14:17:39;;;;;;;;;;;20.60;78.60;;;;;;5085138;28;19971;-76
2022/06/13 14:20:09;;;;;;;;;;;20.60;78.80;;;;;;5084602;28;20409;-77
2022/06/13 14:22:38;;;;;;;;;;;20.70;79.00;;;;;;5065201;28;19924;-77
2022/06/13 14:25:08;;;;;;;;;;;20.80;81.10;;;;;;5087328;28;19928;-77
2022/06/13 14:27:50;;;;;;;;;;;20.80;79.60;;;;;;5080097;28;19928;-77
2022/06/13 14:33:03;;;;;;;;;;;20.90;78.30;;;;;;5082473;28;19977;-77
2022/06/13 14:35:44;;;;;;;;;;;20.90;79.00;;;;;;5078800;28;19982;-77
2022/06/13 14:38:19;;;;;;;;;;;21.00;79.30;;;;;;5072861;28;20004;-77
2022/06/13 14:40:52;;;;;;;;;;;21.00;79.10;;;;;;5083933;28;19928;-77
2022/06/13 14:43:22;;;;;;;;;;;21.00;79.50;;;;;;5062398;28;19924;-77
2022/06/13 14:45:52;;;;;;;;;;;21.10;79.20;;;;;;5081324;28;19973;-77
2022/06/13 14:48:24;;;;;;;;;;;21.10;79.00;;;;;;5081249;28;19943;-77
2022/06/13 14:51:05;;;;;;;;;;;21.20;79.00;;;;;;5089378;28;19924;-77
2022/06/13 14:53:41;;;;;;;;;;;21.20;78.60;;;;;;5083692;28;20039;-77
2022/06/13 14:56:26;;;;;;;;;;;21.30;77.30;;;;;;5080927;28;19950;-77
2022/06/13 14:58:58;;;;;;;;;;;21.30;77.30;;;;;;5080865;28;20340;-77
2022/06/13 15:01:25;;;;;;;;;;;21.40;78.90;;;;;;5084790;28;19932;-76
2022/06/13 15:04:11;;;;;;;;;;;21.40;78.60;;;;;;5081318;28;19928;-77